createdAt,value
2022-09-21T00:01:20.670Z,98185.17
2022-09-21T00:03:48.113Z,98181.33
2022-09-21T00:06:18.020Z,98178.27
2022-09-21T00:08:46.198Z,98182.25
2022-09-21T00:11:14.673Z,98187.13
2022-09-21T00:13:42.230Z,98188.48
2022-09-21T00:16:09.574Z,98188.24
2022-09-21T00:18:37.041Z,98191.27
2022-09-21T00:21:11.870Z,98187.88
2022-09-21T00:23:39.248Z,98190.52
2022-09-21T00:26:17.437Z,98191.32
2022-09-21T00:28:44.915Z,98192.27
2022-09-21T00:31:14.508Z,98191.77
2022-09-21T00:33:42.261Z,98191.80
2022-09-21T00:36:11.636Z,98191.48
2022-09-21T00:38:38.812Z,98195.67
2022-09-21T00:41:06.800Z,98194.83
2022-09-21T00:43:34.953Z,98193.64
2022-09-21T00:46:06.348Z,98193.42
2022-09-21T00:48:33.650Z,98193.35
2022-09-21T00:51:04.328Z,98192.65
2022-09-21T00:53:32.366Z,98193.90
2022-09-21T00:55:59.946Z,98190.77
2022-09-21T00:58:30.614Z,98194.22
2022-09-21T01:00:58.542Z,98190.52
2022-09-21T01:03:25.563Z,98192.82
2022-09-21T01:05:52.515Z,98194.10
2022-09-21T01:08:20.170Z,98193.48
2022-09-21T01:11:09.690Z,98193.47
2022-09-21T01:13:48.999Z,98191.43
2022-09-21T01:16:19.473Z,98190.59
2022-09-21T01:18:48.396Z,98189.95
2022-09-21T01:21:22.409Z,98188.77
2022-09-21T01:24:08.402Z,98194.62
2022-09-21T01:26:36.163Z,98196.33
2022-09-21T01:29:38.536Z,98195.21
2022-09-21T01:32:07.661Z,98194.70
2022-09-21T01:34:56.389Z,98193.22
2022-09-21T01:37:44.427Z,98189.98
2022-09-21T01:40:14.876Z,98190.02
2022-09-21T01:42:42.035Z,98192.60
2022-09-21T01:45:09.770Z,98191.81
2022-09-21T01:47:37.134Z,98195.98
2022-09-21T01:50:06.364Z,98196.13
2022-09-21T01:52:42.517Z,98196.25
2022-09-21T01:55:12.994Z,98192.48
2022-09-21T01:57:55.827Z,98194.71
2022-09-21T02:00:23.430Z,98196.72
2022-09-21T02:02:53.244Z,98199.09
2022-09-21T02:05:21.678Z,98201.52
2022-09-21T02:07:49.235Z,98204.75
2022-09-21T02:10:50.185Z,98211.61
2022-09-21T02:13:18.013Z,98209.35
2022-09-21T02:15:51.210Z,98206.73
2022-09-21T02:18:25.479Z,98206.35
2022-09-21T02:20:57.493Z,98212.94
2022-09-21T02:23:37.772Z,98210.98
2022-09-21T02:26:13.284Z,98210.29
2022-09-21T02:28:47.766Z,98210.66
2022-09-21T02:31:32.938Z,98208.53
2022-09-21T02:34:04.359Z,98210.39
2022-09-21T02:36:33.884Z,98214.31
2022-09-21T02:39:12.898Z,98215.73
2022-09-21T02:42:04.705Z,98218.43
2022-09-21T02:45:06.076Z,98220.11
2022-09-21T02:47:42.336Z,98213.34
2022-09-21T02:50:52.702Z,98215.56
2022-09-21T02:53:22.832Z,98218.23
2022-09-21T02:55:55.716Z,98222.42
2022-09-21T02:58:24.905Z,98221.39
2022-09-21T03:00:52.198Z,98221.30
2022-09-21T03:03:21.350Z,98225.23
2022-09-21T03:05:49.264Z,98221.89
2022-09-21T03:08:17.284Z,98222.17
2022-09-21T03:10:44.582Z,98223.27
2022-09-21T03:13:11.896Z,98222.00
2022-09-21T03:15:39.773Z,98222.31
2022-09-21T03:18:09.780Z,98222.34
2022-09-21T03:20:37.237Z,98217.48
2022-09-21T03:23:04.484Z,98219.52
2022-09-21T03:25:31.535Z,98226.61
2022-09-21T03:27:58.886Z,98218.86
2022-09-21T03:30:26.442Z,98223.99
2022-09-21T03:32:53.820Z,98223.96
2022-09-21T03:35:21.978Z,98221.25
2022-09-21T03:37:49.530Z,98223.04
2022-09-21T03:40:17.223Z,98221.90
2022-09-21T03:42:44.852Z,98225.91
2022-09-21T03:45:12.252Z,98224.01
2022-09-21T03:47:39.459Z,98224.35
2022-09-21T03:50:09.962Z,98224.55
2022-09-21T03:52:38.776Z,98224.42
2022-09-21T03:55:09.830Z,98223.04
2022-09-21T03:57:36.982Z,98227.08
2022-09-21T04:00:05.348Z,98228.19
2022-09-21T04:02:32.314Z,98226.09
2022-09-21T04:05:00.068Z,98228.19
2022-09-21T04:07:27.104Z,98230.64
2022-09-21T04:09:54.251Z,98228.34
2022-09-21T04:12:22.628Z,98227.83
2022-09-21T04:14:50.327Z,98231.74
2022-09-21T04:17:17.237Z,98229.52
2022-09-21T04:19:45.730Z,98229.91
2022-09-21T04:22:12.865Z,98229.71
2022-09-21T04:24:42.268Z,98234.66
2022-09-21T04:27:10.339Z,98231.52
2022-09-21T04:29:37.797Z,98233.42
2022-09-21T04:32:05.392Z,98236.46
2022-09-21T04:34:32.615Z,98232.76
2022-09-21T04:36:59.789Z,98235.30
2022-09-21T04:39:26.806Z,98235.66
2022-09-21T04:41:53.881Z,98235.50
2022-09-21T04:44:20.897Z,98237.17
2022-09-21T04:46:47.966Z,98234.55
2022-09-21T04:49:14.990Z,98239.31
2022-09-21T04:51:42.252Z,98237.02
2022-09-21T04:54:09.407Z,98239.49
2022-09-21T04:56:36.444Z,98240.08
2022-09-21T04:59:03.746Z,98242.02
2022-09-21T05:01:30.887Z,98241.83
2022-09-21T05:04:02.726Z,98240.93
2022-09-21T05:06:30.066Z,98247.16
2022-09-21T05:09:15.841Z,98248.39
2022-09-21T05:11:43.294Z,98247.31
2022-09-21T05:14:10.345Z,98250.14
2022-09-21T05:16:37.599Z,98248.63
2022-09-21T05:19:04.780Z,98249.96
2022-09-21T05:21:32.015Z,98248.55
2022-09-21T05:23:59.147Z,98249.78
2022-09-21T05:26:26.438Z,98252.39
2022-09-21T05:28:54.019Z,98252.41
2022-09-21T05:31:24.148Z,98249.80
2022-09-21T05:33:54.406Z,98251.64
2022-09-21T05:36:27.696Z,98249.50
2022-09-21T05:38:56.596Z,98248.77
2022-09-21T05:41:24.277Z,98250.06
2022-09-21T05:43:51.824Z,98250.04
2022-09-21T05:46:39.697Z,98253.45
2022-09-21T05:49:20.437Z,98257.33
2022-09-21T05:52:09.679Z,98254.20
2022-09-21T05:54:49.322Z,98256.16
2022-09-21T05:57:30.043Z,98257.70
2022-09-21T06:00:16.521Z,98262.94
2022-09-21T06:03:06.524Z,98264.29
2022-09-21T06:05:33.595Z,98267.42
2022-09-21T06:09:00.928Z,98261.64
2022-09-21T06:18:17.943Z,98285.23
2022-09-21T06:20:50.058Z,98284.93
2022-09-21T06:23:17.310Z,98284.91
2022-09-21T06:25:44.360Z,98290.84
2022-09-21T06:28:12.737Z,98293.73
2022-09-21T06:30:42.396Z,98293.08
2022-09-21T06:33:10.003Z,98297.11
2022-09-21T06:35:37.469Z,98299.73
2022-09-21T06:38:06.556Z,98302.96
2022-09-21T06:40:35.033Z,98297.59
2022-09-21T06:43:03.109Z,98297.89
2022-09-21T06:45:31.248Z,98304.79
2022-09-21T06:47:58.228Z,98303.67
2022-09-21T06:50:25.828Z,98304.69
2022-09-21T06:52:52.939Z,98301.39
2022-09-21T06:55:20.391Z,98296.95
2022-09-21T06:57:47.544Z,98291.64
2022-09-21T07:00:15.149Z,98300.02
2022-09-21T07:02:45.679Z,98304.73
2022-09-21T07:05:13.090Z,98310.77
2022-09-21T07:07:40.655Z,98304.80
2022-09-21T07:10:13.519Z,98300.95
2022-09-21T07:12:42.156Z,98307.30
2022-09-21T07:15:10.608Z,98306.34
2022-09-21T07:17:38.973Z,98310.45
2022-09-21T07:20:07.985Z,98312.11
2022-09-21T07:22:35.416Z,98314.29
2022-09-21T07:25:02.982Z,98311.52
2022-09-21T07:27:30.367Z,98315.26
2022-09-21T07:29:57.360Z,98311.98
2022-09-21T07:32:25.171Z,98313.64
2022-09-21T07:34:56.629Z,98311.91
2022-09-21T07:37:24.872Z,98313.17
2022-09-21T07:39:53.369Z,98313.27
2022-09-21T07:42:21.743Z,98313.29
2022-09-21T07:44:49.091Z,98315.23
2022-09-21T07:47:16.380Z,98312.99
2022-09-21T07:49:43.393Z,98313.61
2022-09-21T07:52:11.190Z,98314.36
2022-09-21T07:54:38.505Z,98317.30
2022-09-21T07:57:24.191Z,98317.52
2022-09-21T07:59:51.546Z,98317.67
2022-09-21T08:02:18.638Z,98318.98
2022-09-21T08:04:52.219Z,98320.67
2022-09-21T08:07:19.362Z,98322.30
2022-09-21T08:09:50.737Z,98320.20
2022-09-21T08:12:19.066Z,98322.58
2022-09-21T08:14:47.060Z,98322.45
2022-09-21T08:17:14.901Z,98329.08
2022-09-21T08:19:42.048Z,98331.01
2022-09-21T08:22:09.103Z,98333.76
2022-09-21T08:24:37.835Z,98335.94
2022-09-21T08:27:05.184Z,98336.84
2022-09-21T08:29:36.484Z,98339.52
2022-09-21T08:35:25.974Z,98339.71
2022-09-21T08:37:53.946Z,98339.63
2022-09-21T08:40:21.165Z,98341.10
2022-09-21T08:43:00.737Z,98341.02
2022-09-21T08:45:35.088Z,98341.71
2022-09-21T08:48:03.657Z,98343.52
2022-09-21T08:51:01.613Z,98340.88
2022-09-21T08:53:56.511Z,98339.41
2022-09-21T08:56:32.858Z,98340.30
2022-09-21T08:59:12.214Z,98345.55
2022-09-21T09:02:02.945Z,98343.20
2022-09-21T09:05:06.045Z,98339.67
2022-09-21T09:08:11.660Z,98343.38
2022-09-21T09:10:51.125Z,98343.25
2022-09-21T09:13:29.580Z,98341.62
2022-09-21T09:16:05.308Z,98336.14
2022-09-21T09:19:04.572Z,98335.17
2022-09-21T09:21:40.417Z,98335.93
2022-09-21T09:24:19.346Z,98337.41
2022-09-21T09:26:53.691Z,98334.94
2022-09-21T09:29:41.699Z,98334.58
2022-09-21T09:32:13.969Z,98333.27
2022-09-21T09:34:49.309Z,98334.49
2022-09-21T09:37:16.916Z,98331.70
2022-09-21T09:39:49.752Z,98329.44
2022-09-21T09:42:23.263Z,98326.81
2022-09-21T09:45:15.404Z,98329.48
2022-09-21T09:47:51.977Z,98328.86
2022-09-21T09:50:26.598Z,98325.10
2022-09-21T09:53:07.981Z,98326.77
2022-09-21T09:55:41.887Z,98326.02
2022-09-21T09:58:32.907Z,98323.58
2022-09-21T10:01:07.914Z,98322.65
2022-09-21T10:03:40.497Z,98323.28
2022-09-21T10:06:14.817Z,98323.46
2022-09-21T10:08:46.767Z,98326.77
2022-09-21T10:11:15.049Z,98325.99
2022-09-21T10:14:04.849Z,98331.11
2022-09-21T10:16:40.208Z,98327.30
2022-09-21T10:19:18.163Z,98320.95
2022-09-21T10:21:51.301Z,98317.35
2022-09-21T10:24:38.570Z,98316.99
2022-09-21T10:27:11.251Z,98318.10
2022-09-21T10:29:48.024Z,98313.63
2022-09-21T10:32:17.632Z,98311.13
2022-09-21T10:35:10.115Z,98312.13
2022-09-21T10:38:01.973Z,98312.30
2022-09-21T10:40:30.425Z,98312.45
2022-09-21T10:43:00.193Z,98313.81
2022-09-21T10:45:31.974Z,98312.21
2022-09-21T10:48:05.167Z,98311.63
2022-09-21T10:50:39.683Z,98310.00
2022-09-21T10:53:09.944Z,98307.15
2022-09-21T10:55:52.682Z,98299.55
2022-09-21T10:58:25.748Z,98296.59
2022-09-21T11:00:53.318Z,98295.45
2022-09-21T11:03:33.367Z,98295.02
2022-09-21T11:06:04.699Z,98295.71
2022-09-21T11:08:58.394Z,98292.60
2022-09-21T11:11:39.649Z,98290.32
2022-09-21T11:14:24.730Z,98280.52
2022-09-21T11:17:12.184Z,98280.55
2022-09-21T11:19:54.962Z,98277.80
2022-09-21T11:22:45.251Z,98279.02
2022-09-21T11:25:36.277Z,98276.64
2022-09-21T11:28:13.138Z,98275.41
2022-09-21T11:30:48.701Z,98272.88
2022-09-21T11:33:55.769Z,98269.48
2022-09-21T11:36:22.625Z,98267.77
2022-09-21T11:38:58.076Z,98267.07
2022-09-21T11:41:45.329Z,98269.20
2022-09-21T11:45:00.553Z,98269.79
2022-09-21T11:47:57.809Z,98275.31
2022-09-21T11:50:30.571Z,98278.17
2022-09-21T11:53:29.077Z,98283.39
2022-09-21T11:56:30.971Z,98277.99
2022-09-21T11:59:07.564Z,98267.16
2022-09-21T12:01:54.976Z,98267.86
2022-09-21T12:04:42.125Z,98267.48
2022-09-21T12:07:12.272Z,98263.63
2022-09-21T12:10:11.289Z,98265.81
2022-09-21T12:12:44.664Z,98261.77
2022-09-21T12:15:39.976Z,98263.64
2022-09-21T12:18:37.999Z,98263.86
2022-09-21T12:21:22.298Z,98262.27
2022-09-21T12:23:52.623Z,98258.30
2022-09-21T12:26:22.439Z,98252.55
2022-09-21T12:29:11.531Z,98248.48
2022-09-21T12:31:46.760Z,98247.75
2022-09-21T12:34:19.358Z,98240.59
2022-09-21T12:37:12.633Z,98241.41
2022-09-21T12:39:59.326Z,98239.86
2022-09-21T12:42:32.625Z,98245.34
2022-09-21T12:45:05.563Z,98240.08
2022-09-21T12:47:54.746Z,98242.95
2022-09-21T12:50:43.111Z,98242.27
2022-09-21T12:53:18.540Z,98246.52
2022-09-21T12:56:01.446Z,98244.65
2022-09-21T12:59:11.599Z,98243.40
2022-09-21T13:01:56.303Z,98242.46
2022-09-21T13:04:28.833Z,98244.63
2022-09-21T13:07:40.837Z,98242.97
2022-09-21T13:10:21.928Z,98238.36
2022-09-21T13:12:53.957Z,98237.61
2022-09-21T13:15:30.143Z,98236.93
2022-09-21T13:18:02.612Z,98240.59
2022-09-21T13:20:37.779Z,98243.73
2022-09-21T13:23:14.422Z,98249.31
2022-09-21T13:25:41.879Z,98254.01
2022-09-21T13:28:13.698Z,98256.84
2022-09-21T13:30:42.853Z,98257.13
2022-09-21T13:33:19.610Z,98259.46
2022-09-21T13:36:01.603Z,98263.18
2022-09-21T13:38:43.809Z,98259.08
2022-09-21T13:41:16.997Z,98254.16
2022-09-21T13:43:50.395Z,98255.80
2022-09-21T13:46:35.906Z,98253.26
2022-09-21T13:49:10.122Z,98252.53
2022-09-21T13:52:04.690Z,98252.55
2022-09-21T13:54:44.150Z,98255.83
2022-09-21T13:57:27.763Z,98249.38
2022-09-21T14:00:07.740Z,98248.48
2022-09-21T14:02:51.206Z,98249.42
2022-09-21T14:05:41.132Z,98249.47
2022-09-21T14:08:14.025Z,98250.21
2022-09-21T14:11:49.370Z,98249.58
2022-09-21T14:14:39.462Z,98249.64
2022-09-21T14:17:41.099Z,98249.81
2022-09-21T14:20:34.627Z,98254.27
2022-09-21T14:23:23.301Z,98253.35
2022-09-21T14:25:56.182Z,98256.34
2022-09-21T14:28:37.844Z,98257.17
2022-09-21T14:31:07.961Z,98251.54
2022-09-21T14:33:58.982Z,98257.88
2022-09-21T14:36:37.925Z,98257.68
2022-09-21T14:39:07.336Z,98259.83
2022-09-21T14:41:40.636Z,98257.46
2022-09-21T14:44:07.868Z,98260.39
2022-09-21T14:46:47.697Z,98262.44
2022-09-21T14:49:21.503Z,98264.08
2022-09-21T14:52:22.256Z,98269.05
2022-09-21T14:55:34.470Z,98270.23
2022-09-21T14:58:15.346Z,98274.86
2022-09-21T15:00:44.186Z,98279.91
2022-09-21T15:03:30.163Z,98274.52
2022-09-21T15:06:43.396Z,98280.17
2022-09-21T15:10:04.465Z,98287.82
2022-09-21T15:12:36.940Z,98285.77
2022-09-21T15:15:13.612Z,98289.30
2022-09-21T15:18:17.419Z,98285.09
2022-09-21T15:25:07.594Z,98282.45
2022-09-21T15:31:14.649Z,98293.76
2022-09-21T15:34:15.134Z,98293.11
2022-09-21T15:40:35.979Z,98299.23
2022-09-21T15:43:23.270Z,98306.05
2022-09-21T15:46:03.837Z,98307.56
2022-09-21T15:48:41.739Z,98309.30
2022-09-21T15:51:16.565Z,98308.86
2022-09-21T15:53:46.479Z,98315.81
2022-09-21T15:56:17.731Z,98321.17
2022-09-21T15:58:49.290Z,98323.15
2022-09-21T16:01:20.974Z,98322.11
2022-09-21T16:03:48.514Z,98327.25
2022-09-21T16:06:21.967Z,98333.39
2022-09-21T16:08:49.370Z,98331.56
2022-09-21T16:11:24.901Z,98332.19
2022-09-21T16:14:28.423Z,98328.45
2022-09-21T16:17:06.111Z,98334.31
2022-09-21T16:19:44.507Z,98329.26
2022-09-21T16:22:13.499Z,98332.17
2022-09-21T16:25:00.117Z,98344.80
2022-09-21T16:27:30.153Z,98345.80
2022-09-21T16:30:00.748Z,98349.86
2022-09-21T16:32:32.030Z,98350.75
2022-09-21T16:35:27.156Z,98361.11
2022-09-21T16:37:58.248Z,98364.54
2022-09-21T16:40:28.543Z,98362.61
2022-09-21T16:42:56.335Z,98364.20
2022-09-21T16:45:30.882Z,98366.93
2022-09-21T16:47:58.925Z,98363.30
2022-09-21T16:50:26.383Z,98362.98
2022-09-21T16:52:53.548Z,98368.67
2022-09-21T16:55:23.441Z,98367.53
2022-09-21T16:57:54.082Z,98377.52
2022-09-21T17:00:21.641Z,98381.20
2022-09-21T17:02:49.362Z,98383.06
2022-09-21T17:05:18.909Z,98389.10
2022-09-21T17:07:55.991Z,98390.90
2022-09-21T17:10:28.675Z,98395.45
2022-09-21T17:12:59.503Z,98398.10
2022-09-21T17:15:27.778Z,98396.39
2022-09-21T17:17:57.894Z,98398.00
2022-09-21T17:20:33.441Z,98404.37
2022-09-21T17:23:03.778Z,98402.55
2022-09-21T17:25:32.453Z,98408.29
2022-09-21T17:28:00.117Z,98408.35
2022-09-21T17:30:27.844Z,98410.67
2022-09-21T17:32:55.337Z,98413.39
2022-09-21T17:35:36.023Z,98409.38
2022-09-21T17:38:03.045Z,98410.87
2022-09-21T17:40:30.976Z,98417.90
2022-09-21T17:43:13.218Z,98419.18
2022-09-21T17:46:00.278Z,98419.40
2022-09-21T17:48:33.207Z,98423.17
2022-09-21T17:51:02.212Z,98424.00
2022-09-21T17:53:39.910Z,98426.77
2022-09-21T17:56:40.215Z,98427.40
2022-09-21T17:59:21.823Z,98430.24
2022-09-21T18:01:49.111Z,98427.10
2022-09-21T18:04:19.508Z,98426.27
2022-09-21T18:06:47.377Z,98425.61
2022-09-21T18:09:14.829Z,98429.61
2022-09-21T18:12:07.060Z,98429.98
2022-09-21T18:14:56.740Z,98432.08
2022-09-21T18:17:26.548Z,98432.56
2022-09-21T18:20:17.967Z,98428.67
2022-09-21T18:23:25.258Z,98435.23
2022-09-21T18:25:56.811Z,98432.78
2022-09-21T18:28:41.164Z,98432.58
2022-09-21T18:31:35.373Z,98432.06
2022-09-21T18:34:28.839Z,98431.28
2022-09-21T18:37:22.894Z,98432.79
2022-09-21T18:40:21.307Z,98432.77
2022-09-21T18:43:04.502Z,98432.63
2022-09-21T18:45:47.640Z,98428.33
2022-09-21T18:48:29.934Z,98432.11
2022-09-21T18:51:11.597Z,98432.13
2022-09-21T18:53:56.121Z,98433.45
2022-09-21T18:56:34.725Z,98431.13
2022-09-21T18:59:02.560Z,98434.22
2022-09-21T19:01:39.210Z,98433.61
2022-09-21T19:04:07.212Z,98435.17
2022-09-21T19:06:56.983Z,98435.96
2022-09-21T19:09:44.612Z,98432.10
2022-09-21T19:12:41.970Z,98431.48
2022-09-21T19:15:42.329Z,98429.73
2022-09-21T19:18:36.276Z,98432.81
2022-09-21T19:21:26.873Z,98426.70
2022-09-21T19:24:19.672Z,98430.30
2022-09-21T19:26:55.474Z,98421.98
2022-09-21T19:29:46.869Z,98423.02
2022-09-21T19:32:18.651Z,98419.05
2022-09-21T19:34:45.769Z,98413.45
2022-09-21T19:37:13.156Z,98416.84
2022-09-21T19:39:50.087Z,98415.04
2022-09-21T19:42:37.149Z,98418.64
2022-09-21T19:45:23.073Z,98417.23
2022-09-21T19:47:54.748Z,98415.55
2022-09-21T19:50:40.632Z,98418.19
2022-09-21T19:53:30.263Z,98416.61
2022-09-21T19:56:18.504Z,98418.94
2022-09-21T19:59:04.514Z,98413.98
2022-09-21T20:01:36.574Z,98414.36
2022-09-21T20:04:05.758Z,98416.34
2022-09-21T20:06:47.567Z,98417.05
2022-09-21T20:09:18.796Z,98416.31
2022-09-21T20:11:55.995Z,98416.59
2022-09-21T20:14:26.641Z,98415.38
2022-09-21T20:17:00.306Z,98419.03
2022-09-21T20:19:44.259Z,98416.88
2022-09-21T20:22:13.565Z,98416.35
2022-09-21T20:24:56.374Z,98418.34
2022-09-21T20:27:44.114Z,98418.16
2022-09-21T20:30:13.241Z,98418.55
2022-09-21T20:32:42.943Z,98419.04
2022-09-21T20:35:20.712Z,98413.96
2022-09-21T20:37:47.984Z,98413.39
2022-09-21T20:40:15.020Z,98410.41
2022-09-21T20:42:42.475Z,98415.87
2022-09-21T20:45:10.849Z,98414.80
2022-09-21T20:47:40.150Z,98414.63
2022-09-21T20:52:34.550Z,98417.14
2022-09-21T20:55:01.608Z,98412.69
2022-09-21T20:57:28.744Z,98409.98
2022-09-21T20:59:55.793Z,98408.94
2022-09-21T21:02:22.939Z,98409.20
2022-09-21T21:04:49.991Z,98412.02
2022-09-21T21:07:17.157Z,98410.91
2022-09-21T21:09:44.284Z,98405.96
2022-09-21T21:12:11.252Z,98402.34
2022-09-21T21:14:38.276Z,98400.80
2022-09-21T21:17:06.428Z,98400.52
2022-09-21T21:19:33.705Z,98398.79
2022-09-21T21:22:00.821Z,98397.43
2022-09-21T21:24:44.207Z,98397.88
2022-09-21T21:27:16.662Z,98400.13
2022-09-21T21:29:50.307Z,98398.08
2022-09-21T21:32:25.375Z,98399.54
2022-09-21T21:34:53.530Z,98397.30
2022-09-21T21:37:23.476Z,98399.17
2022-09-21T21:39:50.528Z,98399.00
2022-09-21T21:42:18.317Z,98398.59
2022-09-21T21:44:46.985Z,98397.90
2022-09-21T21:47:38.060Z,98397.90
2022-09-21T21:50:02.065Z,98394.94
2022-09-21T21:52:30.646Z,98394.23
2022-09-21T21:54:57.662Z,98397.27
2022-09-21T21:57:24.740Z,98398.80
2022-09-21T21:59:51.814Z,98398.41
2022-09-21T22:02:19.193Z,98395.63
2022-09-21T22:04:46.196Z,98396.09
2022-09-21T22:07:13.237Z,98397.88
2022-09-21T22:09:40.286Z,98396.55
2022-09-21T22:12:07.436Z,98394.58
2022-09-21T22:14:34.378Z,98392.27
2022-09-21T22:17:01.458Z,98387.20
2022-09-21T22:19:28.779Z,98387.33
2022-09-21T22:21:55.784Z,98388.63
2022-09-21T22:24:22.872Z,98388.90
2022-09-21T22:26:49.929Z,98389.98
2022-09-21T22:29:17.524Z,98390.05
2022-09-21T22:31:46.914Z,98388.25
2022-09-21T22:34:15.069Z,98391.58
2022-09-21T22:36:44.097Z,98389.66
2022-09-21T22:39:11.709Z,98388.77
2022-09-21T22:41:40.600Z,98388.10
2022-09-21T22:44:08.223Z,98385.27
2022-09-21T22:46:35.315Z,98385.86
2022-09-21T22:49:02.462Z,98385.72
2022-09-21T22:51:29.709Z,98381.86
2022-09-21T22:53:56.835Z,98377.27
2022-09-21T22:56:26.056Z,98379.60
2022-09-21T22:58:54.742Z,98376.56
2022-09-21T23:01:27.471Z,98377.05
2022-09-21T23:04:00.056Z,98377.11
2022-09-21T23:06:29.316Z,98382.98
2022-09-21T23:08:57.497Z,98380.45
2022-09-21T23:11:29.026Z,98381.83
2022-09-21T23:13:56.654Z,98382.27
2022-09-21T23:16:24.400Z,98378.94
2022-09-21T23:18:51.707Z,98381.63
2022-09-21T23:21:23.074Z,98376.98
2022-09-21T23:23:50.301Z,98377.52
2022-09-21T23:26:19.423Z,98373.88
2022-09-21T23:28:51.195Z,98375.47
2022-09-21T23:31:18.342Z,98375.48
2022-09-21T23:33:47.295Z,98376.43
2022-09-21T23:36:16.470Z,98377.27
2022-09-21T23:38:43.853Z,98372.70
2022-09-21T23:41:12.596Z,98372.85
2022-09-21T23:43:40.509Z,98373.96
2022-09-21T23:46:08.368Z,98374.18
2022-09-21T23:48:35.660Z,98371.33
2022-09-21T23:51:03.204Z,98374.09
2022-09-21T23:53:30.488Z,98376.31
2022-09-21T23:55:57.998Z,98374.27
2022-09-21T23:58:25.475Z,98374.00
